createdAt,value
2019-05-13T00:00:29.431Z,2.50
2019-05-13T00:05:39.613Z,1.80
2019-05-13T00:10:48.473Z,1.80
2019-05-13T00:15:58.143Z,2.07
2019-05-13T00:21:05.709Z,2.37
2019-05-13T00:26:15.285Z,2.50
2019-05-13T00:31:27.132Z,2.63
2019-05-13T00:36:35.450Z,2.27
2019-05-13T00:41:45.362Z,2.37
2019-05-13T00:46:55.039Z,2.03
2019-05-13T00:52:03.879Z,2.23
2019-05-13T00:57:14.119Z,2.60
2019-05-13T01:02:24.312Z,2.67
2019-05-13T01:07:34.213Z,3.00
2019-05-13T01:12:44.218Z,2.57
2019-05-13T01:17:53.380Z,2.63
2019-05-13T01:23:04.180Z,3.03
2019-05-13T01:28:17.025Z,3.37
2019-05-13T01:33:25.482Z,2.60
2019-05-13T01:38:37.821Z,2.30
2019-05-13T01:43:46.026Z,2.10
2019-05-13T01:48:54.348Z,2.27
2019-05-13T01:54:04.181Z,2.30
2019-05-13T01:59:17.378Z,2.17
2019-05-13T02:04:27.254Z,2.50
2019-05-13T02:09:37.330Z,2.47
2019-05-13T02:14:47.687Z,2.83
2019-05-13T02:19:57.744Z,3.10
2019-05-13T02:25:24.984Z,3.00
2019-05-13T02:30:45.838Z,3.27
2019-05-13T02:36:03.014Z,2.77
2019-05-13T02:41:13.528Z,2.90
2019-05-13T02:46:27.212Z,3.43
2019-05-13T02:51:34.841Z,3.60
2019-05-13T02:56:46.962Z,4.00
2019-05-13T03:01:56.055Z,3.80
2019-05-13T03:07:07.175Z,3.50
2019-05-13T03:12:23.684Z,3.50
2019-05-13T03:17:43.406Z,2.80
2019-05-13T03:22:56.879Z,4.85
2019-05-13T03:28:26.211Z,4.20
2019-05-13T03:33:37.713Z,4.07
2019-05-13T03:39:05.303Z,3.03
2019-05-13T03:44:04.489Z,3.10
2019-05-13T03:49:18.384Z,3.73
2019-05-13T03:54:28.887Z,3.70
2019-05-13T03:59:43.567Z,3.60
2019-05-13T04:04:59.158Z,3.77
2019-05-13T04:10:07.862Z,3.37
2019-05-13T04:15:23.465Z,3.23
2019-05-13T04:20:44.525Z,3.00
2019-05-13T04:25:55.004Z,3.57
2019-05-13T04:31:04.899Z,3.23
2019-05-13T04:36:13.782Z,3.70
2019-05-13T04:41:24.447Z,3.80
2019-05-13T04:46:33.314Z,3.60
2019-05-13T04:51:42.700Z,2.77
2019-05-13T04:56:55.703Z,3.40
2019-05-13T05:02:39.917Z,3.23
2019-05-13T05:08:16.127Z,2.90
2019-05-13T05:13:59.417Z,3.27
2019-05-13T05:19:33.060Z,2.73
2019-05-13T05:25:01.634Z,2.97
2019-05-13T05:30:51.188Z,3.13
2019-05-13T05:36:34.539Z,2.60
2019-05-13T05:41:51.639Z,2.63
2019-05-13T05:47:02.745Z,2.77
2019-05-13T05:52:21.290Z,2.67
2019-05-13T05:57:31.521Z,2.83
2019-05-13T06:02:45.609Z,2.83
2019-05-13T06:08:33.550Z,3.03
2019-05-13T06:13:46.177Z,2.60
2019-05-13T06:18:56.130Z,2.90
2019-05-13T06:24:11.628Z,2.80
2019-05-13T06:29:22.268Z,2.87
2019-05-13T06:34:32.585Z,3.13
2019-05-13T06:39:42.384Z,2.70
2019-05-13T06:45:12.397Z,2.87
2019-05-13T06:50:22.031Z,2.40
2019-05-13T06:55:35.585Z,2.90
2019-05-13T07:00:46.528Z,2.43
2019-05-13T07:05:58.503Z,3.07
2019-05-13T07:11:17.639Z,2.50
2019-05-13T07:16:23.337Z,2.60
2019-05-13T07:21:33.069Z,2.23
2019-05-13T07:26:43.712Z,2.40
2019-05-13T07:31:57.029Z,2.40
2019-05-13T07:37:11.190Z,2.30
2019-05-13T07:42:17.323Z,2.00
2019-05-13T07:47:31.487Z,1.70
2019-05-13T07:52:42.444Z,2.17
2019-05-13T07:57:58.024Z,1.80
2019-05-13T08:03:12.036Z,1.70
2019-05-13T08:08:21.880Z,1.70
2019-05-13T08:13:31.588Z,1.50
2019-05-13T08:19:12.136Z,1.97
2019-05-13T08:24:22.588Z,1.80
2019-05-13T08:29:32.888Z,1.80
2019-05-13T08:34:41.764Z,1.60
2019-05-13T08:39:52.297Z,1.50
2019-05-13T08:45:05.322Z,1.47
2019-05-13T08:50:16.572Z,1.47
2019-05-13T08:55:32.188Z,1.47
2019-05-13T09:01:02.258Z,1.57
2019-05-13T09:06:12.611Z,1.50
2019-05-13T09:11:25.059Z,2.03
2019-05-13T09:16:35.807Z,1.67
2019-05-13T09:21:49.305Z,1.27
2019-05-13T09:27:01.953Z,1.50
2019-05-13T09:32:21.716Z,1.30
2019-05-13T09:37:31.753Z,1.10
2019-05-13T09:43:02.537Z,1.27
2019-05-13T09:48:24.645Z,1.40
2019-05-13T09:53:33.011Z,1.47
2019-05-13T09:58:44.728Z,1.40
2019-05-13T10:04:03.043Z,1.00
2019-05-13T10:09:34.279Z,1.30
2019-05-13T10:14:41.909Z,0.90
2019-05-13T10:19:51.854Z,1.30
2019-05-13T10:25:02.726Z,0.97
2019-05-13T10:30:12.731Z,1.20
2019-05-13T10:35:19.578Z,1.10
2019-05-13T10:40:27.903Z,1.00
2019-05-13T10:45:34.485Z,1.40
2019-05-13T10:51:04.606Z,1.20
2019-05-13T10:56:35.798Z,1.20
2019-05-13T11:02:08.893Z,1.13
2019-05-13T11:07:19.099Z,1.00
2019-05-13T11:12:33.311Z,0.93
2019-05-13T11:17:43.206Z,0.97
2019-05-13T11:22:53.213Z,1.00
2019-05-13T11:28:02.379Z,1.20
2019-05-13T11:33:18.669Z,0.90
2019-05-13T11:38:33.927Z,1.20
2019-05-13T11:43:44.876Z,0.90
2019-05-13T11:48:57.280Z,1.10
2019-05-13T11:54:13.893Z,0.90
2019-05-13T11:59:22.072Z,0.70
2019-05-13T12:04:35.244Z,0.90
2019-05-13T12:09:44.937Z,1.00
2019-05-13T12:15:22.163Z,0.90
2019-05-13T12:20:07.190Z,0.87
2019-05-13T12:25:16.880Z,0.83
2019-05-13T12:30:27.285Z,0.93
2019-05-13T12:35:35.865Z,0.80
2019-05-13T12:41:08.612Z,0.80
2019-05-13T12:46:26.279Z,1.10
2019-05-13T12:51:36.016Z,1.00
2019-05-13T12:56:46.753Z,1.30
2019-05-13T13:01:56.075Z,0.83
2019-05-13T13:07:13.180Z,0.90
2019-05-13T13:12:18.071Z,0.90
2019-05-13T13:17:37.809Z,1.20
2019-05-13T13:22:49.625Z,1.27
2019-05-13T13:28:10.712Z,1.17
2019-05-13T13:33:24.897Z,1.20
2019-05-13T13:38:42.695Z,1.37
2019-05-13T13:44:12.839Z,1.10
2019-05-13T13:49:23.038Z,1.20
2019-05-13T13:54:36.771Z,1.32
2019-05-13T14:00:26.380Z,1.20
2019-05-13T14:05:24.716Z,1.50
2019-05-13T14:10:34.525Z,1.50
2019-05-13T14:15:45.432Z,1.37
2019-05-13T14:20:55.195Z,1.80
2019-05-13T14:26:03.629Z,1.35
2019-05-13T14:31:13.530Z,1.67
2019-05-13T14:36:24.447Z,1.50
2019-05-13T14:41:32.886Z,1.45
2019-05-13T14:46:47.011Z,1.70
2019-05-13T14:51:51.785Z,1.50
2019-05-13T14:57:02.476Z,1.67
2019-05-13T15:02:11.951Z,1.50
2019-05-13T15:07:22.919Z,1.77
2019-05-13T15:12:32.291Z,2.20
2019-05-13T15:17:42.847Z,2.00
2019-05-13T15:22:51.848Z,1.50
2019-05-13T15:28:02.922Z,1.50
2019-05-13T15:33:09.179Z,1.80
2019-05-13T15:38:14.723Z,1.60
2019-05-13T15:43:24.691Z,1.60
2019-05-13T15:48:35.335Z,1.80
2019-05-13T15:53:43.825Z,2.60
2019-05-13T15:58:52.921Z,2.60
2019-05-13T16:04:03.791Z,2.87
2019-05-13T16:09:12.927Z,3.23
2019-05-13T16:14:21.885Z,2.40
2019-05-13T16:19:33.858Z,1.87
2019-05-13T16:24:41.523Z,1.90
2019-05-13T16:29:46.944Z,1.70
2019-05-13T16:34:55.202Z,1.57
2019-05-13T16:40:02.519Z,1.70
2019-05-13T16:45:12.896Z,2.13
2019-05-13T16:50:27.042Z,2.13
2019-05-13T16:55:36.768Z,1.50
2019-05-13T17:00:46.606Z,1.80
2019-05-13T17:05:57.944Z,1.40
2019-05-13T17:11:11.574Z,1.63
2019-05-13T17:16:21.192Z,1.50
2019-05-13T17:21:31.645Z,1.40
2019-05-13T17:26:38.047Z,1.67
2019-05-13T17:31:45.732Z,1.47
2019-05-13T17:36:53.980Z,1.60
2019-05-13T17:42:01.613Z,1.50
2019-05-13T17:47:08.392Z,1.30
2019-05-13T17:52:22.080Z,4.90
2019-05-13T17:57:32.067Z,1.87
2019-05-13T18:02:44.448Z,1.13
2019-05-13T18:07:52.503Z,1.10
2019-05-13T18:13:03.295Z,1.37
2019-05-13T18:18:12.142Z,1.63
2019-05-13T18:23:22.815Z,1.10
2019-05-13T18:28:31.685Z,1.30
2019-05-13T18:33:51.091Z,1.23
2019-05-13T18:38:58.212Z,1.20
2019-05-13T18:44:05.532Z,1.23
2019-05-13T18:49:14.002Z,1.10
2019-05-13T18:54:28.068Z,1.10
2019-05-13T18:59:37.109Z,1.40
2019-05-13T19:04:45.886Z,1.07
2019-05-13T19:09:53.811Z,1.30
2019-05-13T19:15:02.711Z,1.03
2019-05-13T19:20:11.663Z,1.03
2019-05-13T19:25:18.731Z,1.10
2019-05-13T19:30:25.899Z,1.30
2019-05-13T19:35:37.297Z,1.07
2019-05-13T19:40:47.700Z,1.30
2019-05-13T19:45:57.371Z,1.50
2019-05-13T19:51:05.665Z,1.20
2019-05-13T19:56:15.351Z,1.43
2019-05-13T20:01:24.583Z,1.23
2019-05-13T20:06:32.074Z,1.10
2019-05-13T20:11:41.954Z,1.50
2019-05-13T20:16:52.289Z,1.40
2019-05-13T20:22:03.744Z,1.60
2019-05-13T20:27:14.274Z,1.70
2019-05-13T20:32:22.234Z,1.60
2019-05-13T20:37:31.988Z,1.43
2019-05-13T20:42:42.030Z,1.50
2019-05-13T20:47:51.401Z,1.33
2019-05-13T20:52:58.052Z,1.33
2019-05-13T20:58:12.533Z,1.40
2019-05-13T21:03:22.138Z,1.23
2019-05-13T21:08:32.128Z,1.10
2019-05-13T21:13:43.333Z,1.20
2019-05-13T21:18:53.332Z,1.20
2019-05-13T21:24:01.566Z,1.03
2019-05-13T21:29:10.987Z,1.17
2019-05-13T21:34:22.239Z,1.17
2019-05-13T21:39:32.605Z,1.40
2019-05-13T21:44:44.136Z,1.20
2019-05-13T21:49:56.227Z,1.30
2019-05-13T21:55:02.064Z,0.90
2019-05-13T22:00:12.118Z,1.00
2019-05-13T22:05:19.527Z,1.40
2019-05-13T22:10:30.946Z,1.40
2019-05-13T22:15:38.608Z,1.10
2019-05-13T22:20:50.439Z,0.90
2019-05-13T22:25:56.161Z,1.73
2019-05-13T22:31:06.847Z,1.47
2019-05-13T22:36:21.315Z,1.40
2019-05-13T22:41:33.355Z,1.23
2019-05-13T22:46:44.769Z,1.50
2019-05-13T22:51:55.409Z,1.87
2019-05-13T22:57:01.884Z,1.93
2019-05-13T23:02:10.400Z,1.63
2019-05-13T23:07:22.343Z,2.00
2019-05-13T23:12:31.443Z,2.30
2019-05-13T23:17:41.517Z,2.20
2019-05-13T23:22:51.851Z,2.20
2019-05-13T23:27:59.069Z,2.07
2019-05-13T23:33:11.668Z,2.33
2019-05-13T23:38:18.697Z,2.60
2019-05-13T23:43:25.869Z,2.27
2019-05-13T23:48:35.637Z,2.90
2019-05-13T23:53:42.179Z,2.53
2019-05-13T23:58:51.758Z,3.07
